createdAt,value
2019-02-18T00:00:05.545Z,5.62
2019-02-18T00:01:05.849Z,5.62
2019-02-18T00:02:05.928Z,5.62
2019-02-18T00:03:05.292Z,5.62
2019-02-18T00:04:05.793Z,5.62
2019-02-18T00:05:05.768Z,5.62
2019-02-18T00:06:05.863Z,5.62
2019-02-18T00:07:13.964Z,5.62
2019-02-18T00:08:05.225Z,5.62
2019-02-18T00:09:05.283Z,5.62
2019-02-18T00:10:05.461Z,5.62
2019-02-18T00:11:05.918Z,5.62
2019-02-18T00:12:05.058Z,5.62
2019-02-18T00:13:06.593Z,5.62
2019-02-18T00:14:05.856Z,5.62
2019-02-18T00:15:05.520Z,5.62
2019-02-18T00:16:06.014Z,5.62
2019-02-18T00:17:05.465Z,5.56
2019-02-18T00:18:05.602Z,5.56
2019-02-18T00:19:05.915Z,5.56
2019-02-18T00:20:05.234Z,5.56
2019-02-18T00:21:05.710Z,5.56
2019-02-18T00:22:05.691Z,5.50
2019-02-18T00:23:05.055Z,5.50
2019-02-18T00:24:05.641Z,5.50
2019-02-18T00:25:05.693Z,5.44
2019-02-18T00:26:05.150Z,5.44
2019-02-18T00:27:05.372Z,5.44
2019-02-18T00:28:05.858Z,5.44
2019-02-18T00:29:06.005Z,5.50
2019-02-18T00:30:05.372Z,5.50
2019-02-18T00:31:05.136Z,5.50
2019-02-18T00:32:05.243Z,5.50
2019-02-18T00:33:05.291Z,5.50
2019-02-18T00:34:05.312Z,5.44
2019-02-18T00:35:06.019Z,5.44
2019-02-18T00:36:05.211Z,5.44
2019-02-18T00:37:05.544Z,5.38
2019-02-18T00:38:05.805Z,5.38
2019-02-18T00:39:06.022Z,5.38
2019-02-18T00:40:05.065Z,5.38
2019-02-18T00:41:05.119Z,5.44
2019-02-18T00:42:05.328Z,5.44
2019-02-18T00:43:05.229Z,5.38
2019-02-18T00:44:05.537Z,5.38
2019-02-18T00:45:05.153Z,5.38
2019-02-18T00:46:05.301Z,5.38
2019-02-18T00:47:06.010Z,5.38
2019-02-18T00:48:05.163Z,5.38
2019-02-18T00:49:05.201Z,5.31
2019-02-18T00:50:05.627Z,5.31
2019-02-18T00:51:05.080Z,5.38
2019-02-18T00:52:05.283Z,5.31
2019-02-18T00:53:05.609Z,5.31
2019-02-18T00:54:05.729Z,5.31
2019-02-18T00:55:05.789Z,5.25
2019-02-18T00:56:05.939Z,5.25
2019-02-18T00:57:05.381Z,5.25
2019-02-18T00:58:05.719Z,5.25
2019-02-18T00:59:05.750Z,5.19
2019-02-18T01:00:05.555Z,5.19
2019-02-18T01:01:05.705Z,5.19
2019-02-18T01:02:05.894Z,5.25
2019-02-18T01:03:05.856Z,5.19
2019-02-18T01:04:06.037Z,5.19
2019-02-18T01:05:05.048Z,5.12
2019-02-18T01:06:05.212Z,5.12
2019-02-18T01:07:05.617Z,5.12
2019-02-18T01:08:05.949Z,5.06
2019-02-18T01:09:05.386Z,5.06
2019-02-18T01:10:05.525Z,5.06
2019-02-18T01:11:05.214Z,5.06
2019-02-18T01:12:05.286Z,5.00
2019-02-18T01:13:05.369Z,5.00
2019-02-18T01:14:05.599Z,4.94
2019-02-18T01:15:05.942Z,4.94
2019-02-18T01:16:05.693Z,4.94
2019-02-18T01:17:06.033Z,4.94
2019-02-18T01:18:05.371Z,4.88
2019-02-18T01:19:05.381Z,4.88
2019-02-18T01:20:05.926Z,4.88
2019-02-18T01:21:05.931Z,4.88
2019-02-18T01:22:05.282Z,4.88
2019-02-18T01:23:05.380Z,4.81
2019-02-18T01:24:05.946Z,4.81
2019-02-18T01:25:05.299Z,4.75
2019-02-18T01:26:05.463Z,4.75
2019-02-18T01:27:05.461Z,4.75
2019-02-18T01:28:05.535Z,4.69
2019-02-18T01:29:05.791Z,4.69
2019-02-18T01:30:05.850Z,4.69
2019-02-18T01:31:05.943Z,4.69
2019-02-18T01:32:05.353Z,4.69
2019-02-18T01:33:05.836Z,4.69
2019-02-18T01:34:05.149Z,4.69
2019-02-18T01:35:05.617Z,4.69
2019-02-18T01:36:05.065Z,4.69
2019-02-18T01:37:05.227Z,4.69
2019-02-18T01:38:05.641Z,4.69
2019-02-18T01:39:05.709Z,4.62
2019-02-18T01:40:05.476Z,4.56
2019-02-18T01:41:05.538Z,4.56
2019-02-18T01:42:05.641Z,4.62
2019-02-18T01:43:05.232Z,4.69
2019-02-18T01:44:05.381Z,4.75
2019-02-18T01:45:05.521Z,4.69
2019-02-18T01:46:05.217Z,4.62
2019-02-18T01:47:05.365Z,4.62
2019-02-18T01:48:05.700Z,4.56
2019-02-18T01:49:05.222Z,4.56
2019-02-18T01:50:05.472Z,4.56
2019-02-18T01:51:05.678Z,4.50
2019-02-18T01:52:05.324Z,4.56
2019-02-18T01:53:05.532Z,4.50
2019-02-18T01:54:05.629Z,4.50
2019-02-18T01:55:05.162Z,4.50
2019-02-18T01:56:05.390Z,4.44
2019-02-18T01:57:05.764Z,4.44
2019-02-18T01:58:05.323Z,4.44
2019-02-18T01:59:06.013Z,4.38
2019-02-18T02:00:05.246Z,4.38
2019-02-18T02:01:05.602Z,4.38
2019-02-18T02:02:05.781Z,4.31
2019-02-18T02:03:05.307Z,4.31
2019-02-18T02:04:05.285Z,4.31
2019-02-18T02:05:05.630Z,4.31
2019-02-18T02:06:05.692Z,4.31
2019-02-18T02:07:06.099Z,4.31
2019-02-18T02:08:05.652Z,4.31
2019-02-18T02:09:05.625Z,4.25
2019-02-18T02:10:05.782Z,4.25
2019-02-18T02:11:05.472Z,4.25
2019-02-18T02:12:05.461Z,4.25
2019-02-18T02:13:05.620Z,4.25
2019-02-18T02:14:05.541Z,4.19
2019-02-18T02:15:06.093Z,4.19
2019-02-18T02:16:05.286Z,4.19
2019-02-18T02:17:05.621Z,4.19
2019-02-18T02:18:05.777Z,4.19
2019-02-18T02:19:06.002Z,4.25
2019-02-18T02:20:05.544Z,4.31
2019-02-18T02:21:05.613Z,4.38
2019-02-18T02:22:05.793Z,4.38
2019-02-18T02:23:05.129Z,4.38
2019-02-18T02:24:05.217Z,4.38
2019-02-18T02:25:05.960Z,4.44
2019-02-18T02:26:06.002Z,4.38
2019-02-18T02:27:05.213Z,4.38
2019-02-18T02:28:05.683Z,4.44
2019-02-18T02:29:05.855Z,4.38
2019-02-18T02:30:05.078Z,4.38
2019-02-18T02:31:05.315Z,4.38
2019-02-18T02:32:05.481Z,4.38
2019-02-18T02:33:05.450Z,4.44
2019-02-18T02:34:05.879Z,4.38
2019-02-18T02:35:05.370Z,4.38
2019-02-18T02:36:05.476Z,4.31
2019-02-18T02:37:06.113Z,4.31
2019-02-18T02:38:07.864Z,4.31
2019-02-18T02:39:06.585Z,4.38
2019-02-18T02:40:05.934Z,4.38
2019-02-18T02:41:05.612Z,4.38
2019-02-18T02:42:05.381Z,4.31
2019-02-18T02:43:05.462Z,4.31
2019-02-18T02:44:05.875Z,4.31
2019-02-18T02:45:05.851Z,4.31
2019-02-18T02:46:06.104Z,4.31
2019-02-18T02:47:05.459Z,4.31
2019-02-18T02:48:05.617Z,4.25
2019-02-18T02:49:05.676Z,4.25
2019-02-18T02:50:05.222Z,4.31
2019-02-18T02:51:05.216Z,4.31
2019-02-18T02:52:05.838Z,4.25
2019-02-18T02:53:04.979Z,4.25
2019-02-18T02:54:05.302Z,4.25
2019-02-18T02:55:05.200Z,4.19
2019-02-18T02:56:05.378Z,4.19
2019-02-18T02:57:05.374Z,4.19
2019-02-18T02:58:05.135Z,4.19
2019-02-18T02:59:05.773Z,4.19
2019-02-18T03:00:06.012Z,4.19
2019-02-18T03:01:05.136Z,4.25
2019-02-18T03:02:05.597Z,4.19
2019-02-18T03:03:05.928Z,4.19
2019-02-18T03:04:05.542Z,4.12
2019-02-18T03:05:06.000Z,4.12
2019-02-18T03:06:05.138Z,4.06
2019-02-18T03:07:05.350Z,4.06
2019-02-18T03:08:05.629Z,4.06
2019-02-18T03:09:05.687Z,4.06
2019-02-18T03:10:05.774Z,4.06
2019-02-18T03:11:05.036Z,4.06
2019-02-18T03:12:05.218Z,4.06
2019-02-18T03:13:05.298Z,4.00
2019-02-18T03:14:05.537Z,4.00
2019-02-18T03:15:05.144Z,4.00
2019-02-18T03:16:05.293Z,4.00
2019-02-18T03:17:05.769Z,4.00
2019-02-18T03:18:05.932Z,3.94
2019-02-18T03:19:05.362Z,4.00
2019-02-18T03:20:05.451Z,4.00
2019-02-18T03:21:05.877Z,4.00
2019-02-18T03:22:05.945Z,4.00
2019-02-18T03:23:05.925Z,4.00
2019-02-18T03:24:05.212Z,4.00
2019-02-18T03:25:05.595Z,4.00
2019-02-18T03:26:05.693Z,4.00
2019-02-18T03:27:05.278Z,4.00
2019-02-18T03:28:06.028Z,4.00
2019-02-18T03:29:05.449Z,4.06
2019-02-18T03:30:05.855Z,4.06
2019-02-18T03:31:05.460Z,4.06
2019-02-18T03:32:05.466Z,4.06
2019-02-18T03:33:06.027Z,4.00
2019-02-18T03:34:05.553Z,4.00
2019-02-18T03:35:06.502Z,4.00
2019-02-18T03:36:05.772Z,3.94
2019-02-18T03:37:05.065Z,4.00
2019-02-18T03:38:05.329Z,4.00
2019-02-18T03:39:05.454Z,4.00
2019-02-18T03:40:05.548Z,4.00
2019-02-18T03:41:06.028Z,3.94
2019-02-18T03:42:05.556Z,3.94
2019-02-18T03:43:05.047Z,3.94
2019-02-18T03:44:05.786Z,3.94
2019-02-18T03:45:05.855Z,3.94
2019-02-18T03:46:05.865Z,3.88
2019-02-18T03:47:05.443Z,3.88
2019-02-18T03:48:05.463Z,3.88
2019-02-18T03:49:05.614Z,3.81
2019-02-18T03:50:05.130Z,3.81
2019-02-18T03:51:05.445Z,3.81
2019-02-18T03:52:05.532Z,3.81
2019-02-18T03:53:05.230Z,3.81
2019-02-18T03:54:05.301Z,3.81
2019-02-18T03:55:05.774Z,3.81
2019-02-18T03:56:05.935Z,3.81
2019-02-18T03:57:05.684Z,3.81
2019-02-18T03:58:05.696Z,3.75
2019-02-18T03:59:05.144Z,3.75
2019-02-18T04:00:05.472Z,3.75
2019-02-18T04:01:05.360Z,3.75
2019-02-18T04:02:05.799Z,3.69
2019-02-18T04:03:05.307Z,3.69
2019-02-18T04:04:05.626Z,3.69
2019-02-18T04:05:05.709Z,3.69
2019-02-18T04:06:05.869Z,3.69
2019-02-18T04:07:05.859Z,3.62
2019-02-18T04:08:05.238Z,3.62
2019-02-18T04:09:05.200Z,3.62
2019-02-18T04:10:05.703Z,3.62
2019-02-18T04:11:05.785Z,3.56
2019-02-18T04:12:05.057Z,3.56
2019-02-18T04:13:05.303Z,3.56
2019-02-18T04:14:05.470Z,3.50
2019-02-18T04:15:05.782Z,3.50
2019-02-18T04:16:05.299Z,3.50
2019-02-18T04:17:05.834Z,3.50
2019-02-18T04:18:05.299Z,3.44
2019-02-18T04:19:05.798Z,3.50
2019-02-18T04:20:05.776Z,3.50
2019-02-18T04:21:05.291Z,3.44
2019-02-18T04:22:05.866Z,3.44
2019-02-18T04:23:05.444Z,3.44
2019-02-18T04:24:05.751Z,3.44
2019-02-18T04:25:05.224Z,3.38
2019-02-18T04:26:05.301Z,3.38
2019-02-18T04:27:05.374Z,3.38
2019-02-18T04:28:05.860Z,3.31
2019-02-18T04:29:05.924Z,3.38
2019-02-18T04:30:05.615Z,3.38
2019-02-18T04:31:05.761Z,3.31
2019-02-18T04:32:05.858Z,3.31
2019-02-18T04:33:05.607Z,3.31
2019-02-18T04:34:06.116Z,3.25
2019-02-18T04:35:05.124Z,3.25
2019-02-18T04:36:05.312Z,3.25
2019-02-18T04:37:05.373Z,3.25
2019-02-18T04:38:05.474Z,3.25
2019-02-18T04:39:05.541Z,3.25
2019-02-18T04:40:05.544Z,3.25
2019-02-18T04:41:05.145Z,3.25
2019-02-18T04:42:05.231Z,3.25
2019-02-18T04:43:05.313Z,3.19
2019-02-18T04:44:05.545Z,3.19
2019-02-18T04:45:06.040Z,3.31
2019-02-18T04:46:06.021Z,3.25
2019-02-18T04:47:05.384Z,3.19
2019-02-18T04:48:05.375Z,3.12
2019-02-18T04:49:05.048Z,3.12
2019-02-18T04:50:05.782Z,3.12
2019-02-18T04:51:05.838Z,3.06
2019-02-18T04:52:06.050Z,3.06
2019-02-18T04:53:06.020Z,3.00
2019-02-18T04:54:05.161Z,3.00
2019-02-18T04:55:05.371Z,3.00
2019-02-18T04:56:05.481Z,3.00
2019-02-18T04:57:05.532Z,2.94
2019-02-18T04:58:06.291Z,2.94
2019-02-18T04:59:05.949Z,2.94
2019-02-18T05:00:05.067Z,2.94
2019-02-18T05:01:05.081Z,2.94
2019-02-18T05:02:05.228Z,3.06
2019-02-18T05:03:05.697Z,3.19
2019-02-18T05:04:05.777Z,3.19
2019-02-18T05:05:05.946Z,3.12
2019-02-18T05:06:05.147Z,3.12
2019-02-18T05:07:05.465Z,3.06
2019-02-18T05:08:05.696Z,3.06
2019-02-18T05:09:06.000Z,3.06
2019-02-18T05:10:05.561Z,3.00
2019-02-18T05:11:05.528Z,3.00
2019-02-18T05:12:05.072Z,3.00
2019-02-18T05:13:05.133Z,2.94
2019-02-18T05:14:05.714Z,2.94
2019-02-18T05:15:05.055Z,2.94
2019-02-18T05:16:05.396Z,2.88
2019-02-18T05:17:05.438Z,2.88
2019-02-18T05:18:06.032Z,2.88
2019-02-18T05:19:05.084Z,2.88
2019-02-18T05:20:05.385Z,2.88
2019-02-18T05:21:05.268Z,2.88
2019-02-18T05:22:05.761Z,2.88
2019-02-18T05:23:05.043Z,2.88
2019-02-18T05:24:05.219Z,2.81
2019-02-18T05:25:05.862Z,2.81
2019-02-18T05:26:05.488Z,2.81
2019-02-18T05:27:05.472Z,2.94
2019-02-18T05:28:06.511Z,2.94
2019-02-18T05:29:05.838Z,2.94
2019-02-18T05:30:05.553Z,2.88
2019-02-18T05:31:05.539Z,2.88
2019-02-18T05:32:05.777Z,2.81
2019-02-18T05:33:05.038Z,2.81
2019-02-18T05:34:05.701Z,2.81
2019-02-18T05:35:05.196Z,2.81
2019-02-18T05:36:05.303Z,2.81
2019-02-18T05:37:05.552Z,2.81
2019-02-18T05:38:05.683Z,2.81
2019-02-18T05:39:16.879Z,2.81
2019-02-18T05:40:05.961Z,2.81
2019-02-18T05:41:05.865Z,2.81
2019-02-18T05:42:05.133Z,2.75
2019-02-18T05:43:05.207Z,2.81
2019-02-18T05:44:05.299Z,2.81
2019-02-18T05:45:05.417Z,2.81
2019-02-18T05:46:08.405Z,2.81
2019-02-18T05:47:05.872Z,2.81
2019-02-18T05:48:06.120Z,2.75
2019-02-18T05:49:05.072Z,2.81
2019-02-18T05:50:05.543Z,2.81
2019-02-18T05:51:05.838Z,2.81
2019-02-18T05:52:05.283Z,2.81
2019-02-18T05:53:05.693Z,2.81
2019-02-18T05:54:05.716Z,2.81
2019-02-18T05:55:05.831Z,2.94
2019-02-18T05:56:05.462Z,2.94
2019-02-18T05:57:05.706Z,2.88
2019-02-18T05:58:05.938Z,2.81
2019-02-18T05:59:05.625Z,2.81
2019-02-18T06:00:05.948Z,2.81
2019-02-18T06:01:05.861Z,2.81
2019-02-18T06:02:05.064Z,2.81
2019-02-18T06:03:05.213Z,3.00
2019-02-18T06:04:05.469Z,3.00
2019-02-18T06:05:05.837Z,2.94
2019-02-18T06:06:05.314Z,2.94
2019-02-18T06:07:05.624Z,3.00
2019-02-18T06:08:05.304Z,2.94
2019-02-18T06:09:06.026Z,2.94
2019-02-18T06:10:05.384Z,3.00
2019-02-18T06:11:05.561Z,2.88
2019-02-18T06:12:05.782Z,2.62
2019-02-18T06:13:05.304Z,2.50
2019-02-18T06:14:05.545Z,2.31
2019-02-18T06:15:05.448Z,2.12
2019-02-18T06:16:05.730Z,2.00
2019-02-18T06:17:05.858Z,1.88
2019-02-18T06:18:05.246Z,1.81
2019-02-18T06:19:05.205Z,1.69
2019-02-18T06:20:05.387Z,1.62
2019-02-18T06:21:05.840Z,1.50
2019-02-18T06:22:05.559Z,1.44
2019-02-18T06:23:05.791Z,1.38
2019-02-18T06:24:05.055Z,1.31
2019-02-18T06:25:05.537Z,1.25
2019-02-18T06:26:05.713Z,1.19
2019-02-18T06:27:05.786Z,1.12
2019-02-18T06:28:05.095Z,1.06
2019-02-18T06:29:10.552Z,1.06
2019-02-18T06:30:05.843Z,1.06
2019-02-18T06:31:05.364Z,1.25
2019-02-18T06:32:05.460Z,1.69
2019-02-18T06:33:05.295Z,1.69
2019-02-18T06:34:05.949Z,1.56
2019-02-18T06:35:05.137Z,1.50
2019-02-18T06:36:05.295Z,1.38
2019-02-18T06:37:05.705Z,1.44
2019-02-18T06:38:06.027Z,1.56
2019-02-18T06:39:05.207Z,1.62
2019-02-18T06:40:05.833Z,1.50
2019-02-18T06:41:05.295Z,1.50
2019-02-18T06:42:05.404Z,1.44
2019-02-18T06:43:05.448Z,1.31
2019-02-18T06:44:05.700Z,1.25
2019-02-18T06:45:05.063Z,1.12
2019-02-18T06:46:05.246Z,1.12
2019-02-18T06:47:05.369Z,1.25
2019-02-18T06:48:05.926Z,1.44
2019-02-18T06:49:05.195Z,1.56
2019-02-18T06:50:09.514Z,1.50
2019-02-18T06:51:05.305Z,1.44
2019-02-18T06:52:05.297Z,1.38
2019-02-18T06:53:05.534Z,1.25
2019-02-18T06:54:06.070Z,1.19
2019-02-18T06:55:06.022Z,1.12
2019-02-18T06:56:05.407Z,1.06
2019-02-18T06:57:05.540Z,1.06
2019-02-18T06:58:05.884Z,1.12
2019-02-18T06:59:05.514Z,1.12
2019-02-18T07:00:05.322Z,1.25
2019-02-18T07:01:05.361Z,1.56
2019-02-18T07:02:05.163Z,1.62
2019-02-18T07:03:05.545Z,1.56
2019-02-18T07:04:05.782Z,1.50
2019-02-18T07:05:05.951Z,1.44
2019-02-18T07:06:10.346Z,1.38
2019-02-18T07:07:05.446Z,1.31
2019-02-18T07:08:05.854Z,1.25
2019-02-18T07:09:05.440Z,1.25
2019-02-18T07:10:05.958Z,1.19
2019-02-18T07:11:06.085Z,1.19
2019-02-18T07:12:05.403Z,1.38
2019-02-18T07:13:05.945Z,1.62
2019-02-18T07:14:06.098Z,1.94
2019-02-18T07:15:05.788Z,2.00
2019-02-18T07:16:06.138Z,2.06
2019-02-18T07:17:05.316Z,2.31
2019-02-18T07:18:05.477Z,2.38
2019-02-18T07:19:05.452Z,2.44
2019-02-18T07:20:05.778Z,2.50
2019-02-18T07:21:05.201Z,2.69
2019-02-18T07:22:05.464Z,2.75
2019-02-18T07:23:05.959Z,2.81
2019-02-18T07:24:05.212Z,2.94
2019-02-18T07:25:05.614Z,3.31
2019-02-18T07:26:05.545Z,3.50
2019-02-18T07:27:05.610Z,3.56
2019-02-18T07:28:05.221Z,3.69
2019-02-18T07:29:05.796Z,3.75
2019-02-18T07:30:05.868Z,3.88
2019-02-18T07:31:05.465Z,4.00
2019-02-18T07:32:06.351Z,4.12
2019-02-18T07:33:05.697Z,4.25
2019-02-18T07:34:05.145Z,4.38
2019-02-18T07:35:05.203Z,4.62
2019-02-18T07:36:05.890Z,4.75
2019-02-18T07:37:06.031Z,4.88
2019-02-18T07:38:06.118Z,5.00
2019-02-18T07:39:05.132Z,5.12
2019-02-18T07:40:05.224Z,5.25
2019-02-18T07:41:05.613Z,5.38
2019-02-18T07:42:05.773Z,5.50
2019-02-18T07:43:05.138Z,5.62
2019-02-18T07:44:05.225Z,5.75
2019-02-18T07:45:05.447Z,5.94
2019-02-18T07:46:06.018Z,6.06
2019-02-18T07:47:05.475Z,6.19
2019-02-18T07:48:05.064Z,6.31
2019-02-18T07:49:05.140Z,6.44
2019-02-18T07:50:05.303Z,6.56
2019-02-18T07:51:05.292Z,6.69
2019-02-18T07:52:05.939Z,6.88
2019-02-18T07:53:05.543Z,7.00
2019-02-18T07:54:05.652Z,7.06
2019-02-18T07:55:05.781Z,7.38
2019-02-18T07:56:05.059Z,7.44
2019-02-18T07:57:05.856Z,7.56
2019-02-18T07:58:05.952Z,7.62
2019-02-18T07:59:06.007Z,7.69
2019-02-18T08:00:05.548Z,7.81
2019-02-18T08:01:06.021Z,7.88
2019-02-18T08:02:05.044Z,7.94
2019-02-18T08:03:05.465Z,8.06
2019-02-18T08:04:05.464Z,8.12
2019-02-18T08:05:05.127Z,8.19
2019-02-18T08:06:07.349Z,8.31
2019-02-18T08:07:06.028Z,8.44
2019-02-18T08:08:06.024Z,8.56
2019-02-18T08:09:05.118Z,8.62
2019-02-18T08:10:11.952Z,8.69
2019-02-18T08:11:05.936Z,8.75
2019-02-18T08:12:05.554Z,8.81
2019-02-18T08:13:05.044Z,8.88
2019-02-18T08:14:05.227Z,8.94
2019-02-18T08:15:05.698Z,9.06
2019-02-18T08:16:06.202Z,9.19
2019-02-18T08:17:05.196Z,9.25
2019-02-18T08:18:07.547Z,9.38
2019-02-18T08:19:05.790Z,9.44
2019-02-18T08:20:06.028Z,9.44
2019-02-18T08:21:05.518Z,9.50
2019-02-18T08:22:05.810Z,9.50
2019-02-18T08:23:06.002Z,9.62
2019-02-18T08:24:05.536Z,9.62
2019-02-18T08:25:05.860Z,9.56
2019-02-18T08:26:05.475Z,9.56
2019-02-18T08:27:05.622Z,9.56
2019-02-18T08:28:05.864Z,9.62
2019-02-18T08:29:05.278Z,9.56
2019-02-18T08:30:05.611Z,9.56
2019-02-18T08:31:05.858Z,9.56
2019-02-18T08:32:05.154Z,9.56
2019-02-18T08:33:05.227Z,9.56
2019-02-18T08:34:05.553Z,9.56
2019-02-18T08:35:05.694Z,9.56
2019-02-18T08:36:05.781Z,9.56
2019-02-18T08:37:05.854Z,9.62
2019-02-18T08:38:05.543Z,9.62
2019-02-18T08:39:05.619Z,9.62
2019-02-18T08:40:05.781Z,9.62
2019-02-18T08:41:05.381Z,9.56
2019-02-18T08:42:05.465Z,9.56
2019-02-18T08:43:05.993Z,9.56
2019-02-18T08:44:05.131Z,9.56
2019-02-18T08:45:05.464Z,9.56
2019-02-18T08:46:05.705Z,9.56
2019-02-18T08:47:05.380Z,9.56
2019-02-18T08:48:05.640Z,9.69
2019-02-18T08:49:05.780Z,9.69
2019-02-18T08:50:05.135Z,9.69
2019-02-18T08:51:05.682Z,9.62
2019-02-18T08:52:05.295Z,9.62
2019-02-18T08:53:05.051Z,9.62
2019-02-18T08:54:05.230Z,9.56
2019-02-18T08:55:05.216Z,9.56
2019-02-18T08:56:05.560Z,9.56
2019-02-18T08:57:05.606Z,9.50
2019-02-18T08:58:06.015Z,9.50
2019-02-18T08:59:05.206Z,9.56
2019-02-18T09:00:05.560Z,9.69
2019-02-18T09:01:05.598Z,9.62
2019-02-18T09:02:05.215Z,9.56
2019-02-18T09:03:05.936Z,9.56
2019-02-18T09:04:05.078Z,9.56
2019-02-18T09:05:05.785Z,9.50
2019-02-18T09:06:05.211Z,9.44
2019-02-18T09:07:05.523Z,9.44
2019-02-18T09:08:05.930Z,9.38
2019-02-18T09:09:05.291Z,9.38
2019-02-18T09:10:05.480Z,9.31
2019-02-18T09:11:05.450Z,9.31
2019-02-18T09:12:05.053Z,9.25
2019-02-18T09:13:05.382Z,9.25
2019-02-18T09:14:05.465Z,9.25
2019-02-18T09:15:05.708Z,9.19
2019-02-18T09:16:05.610Z,9.19
2019-02-18T09:17:06.009Z,9.19
2019-02-18T09:18:05.212Z,9.19
2019-02-18T09:19:05.277Z,9.19
2019-02-18T09:20:05.938Z,9.12
2019-02-18T09:21:06.596Z,9.12
2019-02-18T09:22:05.844Z,9.12
2019-02-18T09:23:05.149Z,9.12
2019-02-18T09:24:05.224Z,9.12
2019-02-18T09:25:06.018Z,9.06
2019-02-18T09:26:05.245Z,9.06
2019-02-18T09:27:05.281Z,9.00
2019-02-18T09:28:05.439Z,9.00
2019-02-18T09:29:05.774Z,9.00
2019-02-18T09:30:05.033Z,9.00
2019-02-18T09:31:05.465Z,9.00
2019-02-18T09:32:05.718Z,9.06
2019-02-18T09:33:05.943Z,9.06
2019-02-18T09:34:05.143Z,9.12
2019-02-18T09:35:05.466Z,9.12
2019-02-18T09:36:05.955Z,9.19
2019-02-18T09:37:05.214Z,9.25
2019-02-18T09:38:06.034Z,9.31
2019-02-18T09:39:06.035Z,9.94
2019-02-18T09:40:05.377Z,9.88
2019-02-18T09:41:05.134Z,9.88
2019-02-18T09:42:05.221Z,9.75
2019-02-18T09:43:05.679Z,9.69
2019-02-18T09:44:05.955Z,9.62
2019-02-18T09:45:05.933Z,9.62
2019-02-18T09:46:05.148Z,9.56
2019-02-18T09:47:05.274Z,9.56
2019-02-18T09:48:05.487Z,9.56
2019-02-18T09:49:05.551Z,9.50
2019-02-18T09:50:05.779Z,9.50
2019-02-18T09:51:05.872Z,9.44
2019-02-18T09:52:05.221Z,9.44
2019-02-18T09:53:05.362Z,9.44
2019-02-18T09:54:05.461Z,9.38
2019-02-18T09:55:05.287Z,9.38
2019-02-18T09:56:05.449Z,9.44
2019-02-18T09:57:05.784Z,9.38
2019-02-18T09:58:05.383Z,9.38
2019-02-18T09:59:05.843Z,9.44
2019-02-18T10:00:05.383Z,9.38
2019-02-18T10:01:05.154Z,9.44
2019-02-18T10:02:05.861Z,9.44
2019-02-18T10:03:05.356Z,9.44
2019-02-18T10:04:05.564Z,9.44
2019-02-18T10:05:05.637Z,9.50
2019-02-18T10:06:05.700Z,9.50
2019-02-18T10:07:05.694Z,9.50
2019-02-18T10:08:05.459Z,9.56
2019-02-18T10:09:06.004Z,9.56
2019-02-18T10:10:05.801Z,9.56
2019-02-18T10:11:05.924Z,9.56
2019-02-18T10:12:06.021Z,9.62
2019-02-18T10:13:05.229Z,9.62
2019-02-18T10:14:05.466Z,9.69
2019-02-18T10:15:05.605Z,9.75
2019-02-18T10:16:05.251Z,9.75
2019-02-18T10:17:05.248Z,9.75
2019-02-18T10:18:05.375Z,9.75
2019-02-18T10:19:06.009Z,9.81
2019-02-18T10:20:05.166Z,9.81
2019-02-18T10:21:05.227Z,9.88
2019-02-18T10:22:05.523Z,9.88
2019-02-18T10:23:05.863Z,9.88
2019-02-18T10:24:05.147Z,9.94
2019-02-18T10:25:05.212Z,9.94
2019-02-18T10:26:05.296Z,10.00
2019-02-18T10:27:05.995Z,10.00
2019-02-18T10:28:05.534Z,10.06
2019-02-18T10:29:05.675Z,10.06
2019-02-18T10:30:05.135Z,10.12
2019-02-18T10:31:05.280Z,10.12
2019-02-18T10:32:05.460Z,10.19
2019-02-18T10:33:05.918Z,10.19
2019-02-18T10:34:05.756Z,10.25
2019-02-18T10:35:04.968Z,10.31
2019-02-18T10:36:05.226Z,10.31
2019-02-18T10:37:05.277Z,10.31
2019-02-18T10:38:05.939Z,10.38
2019-02-18T10:39:05.948Z,10.38
2019-02-18T10:40:05.137Z,10.44
2019-02-18T10:41:07.125Z,10.44
2019-02-18T10:42:05.944Z,10.44
2019-02-18T10:43:05.442Z,10.50
2019-02-18T10:44:06.108Z,10.50
2019-02-18T10:45:05.467Z,10.56
2019-02-18T10:46:05.868Z,10.62
2019-02-18T10:47:05.854Z,10.62
2019-02-18T10:48:06.105Z,10.62
2019-02-18T10:49:16.874Z,10.69
2019-02-18T10:50:05.276Z,10.75
2019-02-18T10:51:05.767Z,10.75
2019-02-18T10:52:05.968Z,10.81
2019-02-18T10:53:06.000Z,10.81
2019-02-18T10:54:05.516Z,10.88
2019-02-18T10:55:05.778Z,10.94
2019-02-18T10:56:05.296Z,10.94
2019-02-18T10:57:05.390Z,11.00
2019-02-18T10:58:05.224Z,11.00
2019-02-18T10:59:05.452Z,11.06
2019-02-18T11:00:05.232Z,11.12
2019-02-18T11:01:05.292Z,11.12
2019-02-18T11:02:05.454Z,11.19
2019-02-18T11:03:05.956Z,11.25
2019-02-18T11:04:05.313Z,11.25
2019-02-18T11:05:05.769Z,11.31
2019-02-18T11:06:05.997Z,11.31
2019-02-18T11:07:05.458Z,11.38
2019-02-18T11:08:05.564Z,11.44
2019-02-18T11:09:05.679Z,11.44
2019-02-18T11:10:05.379Z,11.50
2019-02-18T11:11:05.531Z,11.50
2019-02-18T11:12:05.487Z,11.56
2019-02-18T11:13:05.704Z,11.62
2019-02-18T11:14:05.983Z,11.62
2019-02-18T11:15:05.762Z,11.69
2019-02-18T11:16:06.022Z,11.69
2019-02-18T11:17:05.720Z,11.75
2019-02-18T11:18:05.863Z,11.81
2019-02-18T11:19:05.162Z,11.88
2019-02-18T11:20:05.694Z,11.94
2019-02-18T11:21:05.969Z,12.00
2019-02-18T11:22:05.068Z,12.00
2019-02-18T11:23:05.860Z,12.00
2019-02-18T11:24:06.017Z,12.06
2019-02-18T11:25:05.298Z,12.06
2019-02-18T11:26:05.595Z,12.12
2019-02-18T11:27:05.050Z,12.12
2019-02-18T11:28:05.474Z,12.19
2019-02-18T11:29:05.793Z,12.19
2019-02-18T11:30:05.231Z,12.25
2019-02-18T11:31:06.015Z,12.31
2019-02-18T11:32:05.308Z,12.31
2019-02-18T11:33:05.465Z,12.38
2019-02-18T11:34:07.192Z,12.44
2019-02-18T11:35:05.871Z,12.44
2019-02-18T11:36:05.314Z,12.50
2019-02-18T11:37:05.532Z,12.56
2019-02-18T11:38:05.946Z,12.56
2019-02-18T11:39:05.725Z,12.62
2019-02-18T11:40:05.777Z,12.62
2019-02-18T11:41:05.870Z,12.69
2019-02-18T11:42:05.712Z,12.75
2019-02-18T11:43:05.678Z,12.75
2019-02-18T11:44:06.002Z,12.81
2019-02-18T11:45:05.135Z,12.81
2019-02-18T11:46:05.553Z,12.88
2019-02-18T11:47:05.542Z,12.88
2019-02-18T11:48:05.035Z,12.94
2019-02-18T11:49:05.635Z,12.94
2019-02-18T11:50:05.771Z,13.00
2019-02-18T11:51:05.855Z,13.00
2019-02-18T11:52:05.216Z,13.06
2019-02-18T11:53:05.787Z,13.12
2019-02-18T11:54:05.872Z,13.12
2019-02-18T11:55:05.996Z,13.19
2019-02-18T11:56:05.300Z,13.19
2019-02-18T11:57:05.476Z,13.25
2019-02-18T11:58:05.540Z,13.25
2019-02-18T11:59:05.887Z,13.31
2019-02-18T12:00:06.090Z,13.31
2019-02-18T12:01:05.133Z,13.38
2019-02-18T12:02:05.385Z,13.38
2019-02-18T12:03:10.345Z,13.38
2019-02-18T12:04:05.030Z,13.44
2019-02-18T12:05:05.234Z,13.44
2019-02-18T12:06:05.353Z,13.50
2019-02-18T12:07:05.964Z,13.50
2019-02-18T12:08:05.711Z,13.56
2019-02-18T12:09:05.747Z,13.56
2019-02-18T12:10:05.297Z,13.62
2019-02-18T12:11:05.517Z,13.62
2019-02-18T12:12:05.931Z,13.69
2019-02-18T12:13:05.145Z,13.69
2019-02-18T12:14:05.137Z,13.75
2019-02-18T12:15:05.389Z,13.75
2019-02-18T12:16:05.367Z,13.81
2019-02-18T12:17:05.521Z,13.81
2019-02-18T12:18:05.460Z,13.88
2019-02-18T12:19:05.710Z,13.88
2019-02-18T12:20:05.855Z,13.88
2019-02-18T12:21:06.027Z,13.94
2019-02-18T12:22:05.617Z,13.94
2019-02-18T12:23:05.797Z,14.00
2019-02-18T12:24:05.229Z,14.00
2019-02-18T12:25:06.006Z,14.00
2019-02-18T12:26:05.280Z,14.06
2019-02-18T12:27:05.364Z,14.19
2019-02-18T12:28:05.867Z,14.19
2019-02-18T12:29:06.103Z,14.25
2019-02-18T12:30:05.302Z,14.25
2019-02-18T12:31:05.731Z,14.31
2019-02-18T12:32:05.944Z,14.31
2019-02-18T12:33:05.784Z,14.38
2019-02-18T12:34:05.600Z,14.38
2019-02-18T12:35:05.396Z,14.44
2019-02-18T12:36:05.224Z,14.44
2019-02-18T12:37:05.313Z,14.50
2019-02-18T12:38:06.020Z,14.50
2019-02-18T12:39:05.112Z,14.56
2019-02-18T12:40:05.455Z,14.56
2019-02-18T12:41:05.550Z,14.62
2019-02-18T12:42:06.095Z,14.62
2019-02-18T12:43:05.244Z,14.69
2019-02-18T12:44:05.392Z,14.75
2019-02-18T12:45:05.958Z,14.81
2019-02-18T12:46:15.276Z,14.81
2019-02-18T12:47:05.463Z,14.88
2019-02-18T12:48:05.050Z,14.88
2019-02-18T12:49:05.224Z,14.88
2019-02-18T12:50:05.766Z,14.88
2019-02-18T12:51:05.517Z,14.88
2019-02-18T12:52:05.053Z,14.94
2019-02-18T12:53:05.219Z,14.94
2019-02-18T12:54:05.551Z,14.94
2019-02-18T12:55:05.205Z,14.94
2019-02-18T12:56:05.208Z,14.94
2019-02-18T12:57:05.709Z,15.00
2019-02-18T12:58:05.372Z,15.00
2019-02-18T12:59:05.688Z,15.00
2019-02-18T13:00:05.193Z,15.00
2019-02-18T13:01:05.782Z,15.00
2019-02-18T13:02:05.470Z,15.00
2019-02-18T13:03:05.220Z,15.00
2019-02-18T13:04:05.304Z,15.06
2019-02-18T13:05:05.926Z,15.06
2019-02-18T13:06:05.339Z,15.06
2019-02-18T13:07:05.689Z,15.06
2019-02-18T13:08:05.067Z,15.06
2019-02-18T13:09:05.280Z,15.06
2019-02-18T13:10:05.972Z,15.06
2019-02-18T13:11:05.240Z,15.06
2019-02-18T13:12:05.378Z,15.06